Time;durP1;ratioP1;P1;durP2;ratioP2;P2;SDS_P1;SDS_P2;PMS_P1;PMS_P2;Temp;Humidity;BMP_temperature;BMP_pressure;BME280_temperature;BME280_humidity;BME280_pressure;Samples;Min_cycle;Max_cycle;Signal;HPM_P1;HPM_P2
2022/11/22 00:01:23;;;;;;;;;19.60;16.60;;;;;10.07;62.68;98667.56;4838489;29;8886;-77
2022/11/22 00:03:51;;;;;;;;;13.40;11.20;;;;;10.07;61.46;98666.72;4837326;29;8973;-75
2022/11/22 00:06:20;;;;;;;;;15.60;15.60;;;;;10.09;60.99;98662.34;4820894;29;8878;-77
2022/11/22 00:08:49;;;;;;;;;15.00;12.40;;;;;10.11;61.58;98656.25;4842639;29;8894;-79
2022/11/22 00:11:17;;;;;;;;;16.40;14.80;;;;;10.18;61.50;98650.97;4855304;29;8883;-76
2022/11/22 00:13:46;;;;;;;;;16.40;15.00;;;;;10.14;61.85;98645.78;4838857;29;8896;-76
2022/11/22 00:16:16;;;;;;;;;17.20;15.80;;;;;10.12;61.23;98644.94;4852700;29;8882;-76
2022/11/22 00:18:44;;;;;;;;;25.00;25.00;;;;;10.08;61.42;98645.88;4837025;29;8969;-76
2022/11/22 00:21:13;;;;;;;;;21.80;20.20;;;;;10.16;62.03;98650.97;4868052;29;8866;-76
2022/11/22 00:23:41;;;;;;;;;20.40;19.00;;;;;10.15;61.86;98650.13;4841696;29;8880;-77
2022/11/22 00:26:11;;;;;;;;;20.20;17.20;;;;;10.20;61.84;98641.38;4858694;29;8906;-75
2022/11/22 00:28:40;;;;;;;;;25.40;20.00;;;;;10.10;61.08;98646.72;4857493;29;8919;-77
2022/11/22 00:31:08;;;;;;;;;20.60;19.80;;;;;10.21;61.94;98641.38;4852556;29;9492;-76
2022/11/22 00:33:38;;;;;;;;;28.60;27.00;;;;;10.26;62.25;98643.91;4856585;29;8959;-75
2022/11/22 00:36:07;;;;;;;;;27.60;23.20;;;;;10.15;61.52;98639.72;4856494;29;8905;-77
2022/11/22 00:38:36;;;;;;;;;15.40;14.80;;;;;10.05;61.31;98634.63;4856246;29;8891;-76
2022/11/22 00:41:04;;;;;;;;;18.20;16.80;;;;;9.88;60.80;98640.06;4855123;29;8886;-75
2022/11/22 00:43:33;;;;;;;;;20.80;16.20;;;;;9.89;61.68;98634.84;4850300;29;8908;-75
2022/11/22 00:46:02;;;;;;;;;20.60;18.80;;;;;9.76;61.12;98625.44;4852047;29;8969;-75
2022/11/22 00:48:30;;;;;;;;;21.20;21.20;;;;;9.71;61.40;98625.50;4838998;29;8905;-77
2022/11/22 00:51:00;;;;;;;;;22.20;22.20;;;;;9.59;61.85;98620.44;4864837;29;8887;-77
2022/11/22 00:53:29;;;;;;;;;24.60;21.00;;;;;9.53;62.26;98610.09;4854885;29;9771;-75
2022/11/22 00:55:57;;;;;;;;;19.80;19.00;;;;;9.46;61.68;98613.66;4856444;29;8893;-76
2022/11/22 00:58:26;;;;;;;;;21.80;19.80;;;;;9.51;62.48;98607.53;4854151;29;8883;-77
2022/11/22 01:00:54;;;;;;;;;16.20;16.20;;;;;9.44;62.70;98603.25;4854144;29;9653;-76
2022/11/22 01:03:25;;;;;;;;;26.40;24.00;;;;;9.41;63.05;98598.06;4856039;29;8867;-76
2022/11/22 01:05:53;;;;;;;;;24.00;22.40;;;;;9.34;62.64;98591.25;4856198;29;8887;-77
2022/11/22 01:08:23;;;;;;;;;22.60;18.80;;;;;9.29;62.96;98596.47;4869994;29;8986;-76
2022/11/22 01:10:56;;;;;;;;;20.20;20.20;;;;;9.27;62.61;98590.44;4850313;29;8901;-75
2022/11/22 01:13:25;;;;;;;;;15.60;15.60;;;;;9.26;63.06;98593.03;4838888;29;8996;-76
2022/11/22 01:15:54;;;;;;;;;19.00;18.60;;;;;9.29;63.22;98603.44;4855020;29;8891;-76
2022/11/22 01:18:23;;;;;;;;;21.40;20.00;;;;;9.15;62.80;98600.97;4860120;29;8880;-76
2022/11/22 01:20:51;;;;;;;;;20.80;20.80;;;;;9.16;63.30;98610.50;4875853;29;8883;-77
2022/11/22 01:23:20;;;;;;;;;25.20;23.40;;;;;9.05;63.64;98607.13;4871960;29;8890;-76
2022/11/22 01:25:50;;;;;;;;;27.20;25.60;;;;;9.00;63.94;98607.19;4838805;29;8878;-75
2022/11/22 01:28:19;;;;;;;;;30.80;28.60;;;;;8.89;64.35;98607.28;4853822;29;8879;-76
2022/11/22 01:30:50;;;;;;;;;27.80;24.20;;;;;8.90;63.76;98601.22;4853507;29;8911;-76
2022/11/22 01:33:19;;;;;;;;;29.60;26.60;;;;;8.94;64.17;98602.03;4852982;29;8970;-75
2022/11/22 01:35:47;;;;;;;;;27.20;25.20;;;;;8.89;64.54;98609.03;4853562;29;8871;-76
2022/11/22 01:38:16;;;;;;;;;28.60;27.00;;;;;8.91;64.62;98594.28;4838445;29;8879;-77
2022/11/22 01:40:45;;;;;;;;;32.60;25.20;;;;;8.90;64.46;98596.00;4853447;29;8938;-77
2022/11/22 01:43:18;;;;;;;;;30.60;28.60;;;;;9.08;63.88;98589.75;4854107;29;9779;-76
2022/11/22 01:45:50;;;;;;;;;33.40;27.60;;;;;9.04;63.97;98582.03;4853811;29;8908;-76
2022/11/22 01:48:24;;;;;;;;;29.00;27.80;;;;;9.10;64.14;98588.00;4843792;29;8916;-76
2022/11/22 01:50:58;;;;;;;;;25.00;20.00;;;;;9.03;64.64;98575.06;4836258;29;9689;-76
2022/11/22 01:53:30;;;;;;;;;27.00;25.00;;;;;9.03;64.67;98575.06;4838172;29;8897;-76
2022/11/22 01:56:01;;;;;;;;;34.20;29.80;;;;;8.91;64.50;98558.72;4836474;29;8988;-76
2022/11/22 01:58:34;;;;;;;;;31.20;28.00;;;;;8.93;64.56;98554.38;4836991;29;8893;-75
2022/11/22 02:01:03;;;;;;;;;33.40;30.40;;;;;8.87;64.84;98549.25;4847140;29;9014;-75
2022/11/22 02:03:34;;;;;;;;;33.20;27.00;;;;;8.75;65.40;98551.94;4856449;29;8971;-76
2022/11/22 02:06:04;;;;;;;;;24.40;22.60;;;;;8.76;65.24;98544.13;4844908;29;9105;-76
2022/11/22 02:08:38;;;;;;;;;29.80;28.40;;;;;8.74;65.89;98537.22;4847469;29;8914;-76
2022/11/22 02:11:09;;;;;;;;;34.80;28.00;;;;;8.68;65.37;98545.94;4842212;29;8889;-75
2022/11/22 02:13:43;;;;;;;;;34.60;33.80;;;;;8.74;65.65;98548.50;4847873;29;8985;-75
2022/11/22 02:16:12;;;;;;;;;27.50;26.50;;;;;8.59;65.98;98549.47;4864511;29;8871;-75
2022/11/22 02:18:41;;;;;;;;;32.40;30.00;;;;;8.66;65.80;98546.81;4904321;29;8855;-76
2022/11/22 02:21:10;;;;;;;;;34.20;32.20;;;;;8.69;66.10;98533.81;4848454;29;8917;-75
2022/11/22 02:23:49;;;;;;;;;33.60;31.00;;;;;8.73;65.18;98533.78;4894003;29;8967;-76
2022/11/22 02:26:20;;;;;;;;;37.20;36.60;;;;;8.68;65.35;98532.97;4893895;29;8894;-75
2022/11/22 02:28:52;;;;;;;;;31.40;30.40;;;;;8.69;65.03;98536.41;4893709;29;8887;-75
2022/11/22 02:31:38;;;;;;;;;30.60;26.40;;;;;8.76;63.84;98532.88;4877990;29;8883;-76
2022/11/22 02:34:07;;;;;;;;;37.60;34.00;;;;;8.59;64.44;98538.22;4893738;29;9018;-77
2022/11/22 02:36:41;;;;;;;;;33.40;31.60;;;;;8.64;65.01;98540.78;4894002;29;8915;-76
2022/11/22 02:39:14;;;;;;;;;31.00;26.00;;;;;8.66;65.07;98544.22;4892474;29;8875;-76
2022/11/22 02:41:44;;;;;;;;;31.40;28.60;;;;;8.60;65.22;98539.97;4893358;29;8887;-77
2022/11/22 02:44:13;;;;;;;;;34.50;29.00;;;;;8.48;65.24;98537.47;4877869;29;9962;-76
2022/11/22 02:46:49;;;;;;;;;32.60;29.00;;;;;8.61;64.59;98533.03;4862038;29;8871;-75
2022/11/22 02:49:19;;;;;;;;;29.00;25.60;;;;;8.65;64.89;98532.97;4883882;29;8887;-75
2022/11/22 02:51:48;;;;;;;;;31.25;24.50;;;;;8.67;64.89;98519.97;4857084;29;8887;-75
2022/11/22 02:54:16;;;;;;;;;28.60;23.60;;;;;8.58;64.24;98527.00;4857986;29;8910;-75
2022/11/22 02:56:47;;;;;;;;;30.50;28.25;;;;;8.55;64.74;98523.56;4840007;29;9025;-76
2022/11/22 02:59:16;;;;;;;;;25.80;23.60;;;;;8.56;64.69;98528.75;4840354;29;8870;-77
2022/11/22 03:01:46;;;;;;;;;23.60;22.80;;;;;8.56;63.95;98512.25;4840089;29;9597;-76
2022/11/22 03:04:23;;;;;;;;;22.80;19.60;;;;;8.63;64.09;98515.69;4860903;29;8890;-76
2022/11/22 03:06:54;;;;;;;;;14.40;14.40;;;;;8.57;63.94;98514.00;4860834;29;8891;-76
2022/11/22 03:09:23;;;;;;;;;23.60;20.40;;;;;8.58;64.09;98518.31;4889465;29;8895;-75
2022/11/22 03:11:54;;;;;;;;;27.60;20.40;;;;;8.55;64.24;98518.34;4861593;29;8905;-76
2022/11/22 03:14:23;;;;;;;;;20.40;20.00;;;;;8.63;64.08;98519.13;4840370;29;9656;-75
2022/11/22 03:16:51;;;;;;;;;17.60;16.40;;;;;8.72;64.21;98513.84;4839670;29;8905;-75
2022/11/22 03:19:20;;;;;;;;;15.80;15.80;;;;;8.78;63.25;98512.94;4838453;29;9664;-75
2022/11/22 03:21:49;;;;;;;;;17.80;17.40;;;;;8.81;63.56;98501.63;4858182;29;8927;-76
2022/11/22 03:24:19;;;;;;;;;23.00;18.60;;;;;8.93;63.08;98506.72;4855615;29;8875;-76
2022/11/22 03:26:49;;;;;;;;;16.60;16.60;;;;;8.96;63.10;98491.94;4857907;29;8925;-76
2022/11/22 03:29:19;;;;;;;;;18.60;17.00;;;;;8.98;62.91;98503.19;4857016;29;8971;-77
2022/11/22 03:31:47;;;;;;;;;21.80;16.80;;;;;9.08;62.56;98503.94;4856369;29;8903;-76
2022/11/22 03:34:16;;;;;;;;;14.60;13.60;;;;;9.09;62.24;98504.78;4854915;29;8847;-75
2022/11/22 03:36:45;;;;;;;;;16.20;14.00;;;;;9.07;62.33;98502.19;4856016;29;8891;-77
2022/11/22 03:39:14;;;;;;;;;17.00;15.60;;;;;9.11;62.30;98495.22;4857670;29;8875;-76
2022/11/22 03:41:42;;;;;;;;;16.80;15.40;;;;;9.15;62.15;98497.78;4857723;29;8898;-77
2022/11/22 03:44:11;;;;;;;;;17.20;15.40;;;;;9.15;62.07;98496.94;4847243;29;8877;-75
2022/11/22 03:46:41;;;;;;;;;19.00;17.40;;;;;9.08;61.55;98485.75;4839119;29;8902;-75
2022/11/22 03:49:10;;;;;;;;;21.80;20.00;;;;;9.18;62.14;98487.34;4839067;29;8894;-76
2022/11/22 03:51:39;;;;;;;;;22.80;19.40;;;;;9.18;61.78;98484.72;4839040;29;8917;-75
2022/11/22 03:54:07;;;;;;;;;15.40;14.00;;;;;9.24;61.31;98482.94;4821615;29;8874;-75
2022/11/22 03:56:36;;;;;;;;;9.20;6.40;;;;;9.17;60.85;98477.81;4838836;29;9075;-74
2022/11/22 03:59:05;;;;;;;;;14.60;14.60;;;;;9.25;61.12;98475.13;4856242;29;8886;-75
2022/11/22 04:01:33;;;;;;;;;17.60;15.40;;;;;9.20;61.12;98478.66;4856728;29;9039;-76
2022/11/22 04:04:03;;;;;;;;;15.20;15.20;;;;;9.40;61.15;98483.63;4859511;29;8910;-77
2022/11/22 04:06:32;;;;;;;;;16.20;14.20;;;;;9.49;61.02;98492.16;4850127;29;9028;-76
2022/11/22 04:09:00;;;;;;;;;14.60;13.80;;;;;9.57;60.64;98486.88;4847228;29;8948;-76
2022/11/22 04:11:29;;;;;;;;;21.60;16.80;;;;;9.58;60.47;98485.97;4840931;29;8962;-77
2022/11/22 04:16:44;;;;;;;;;19.40;18.20;;;;;9.63;60.40;98478.97;4848267;29;8949;-77
2022/11/22 04:19:14;;;;;;;;;16.40;16.40;;;;;9.72;60.88;98472.78;4843822;29;8898;-77
2022/11/22 04:21:41;;;;;;;;;15.20;15.00;;;;;9.71;60.01;98473.66;4837310;29;9012;-77
2022/11/22 04:26:58;;;;;;;;;18.80;15.40;;;;;9.82;59.95;98468.28;4838118;29;9700;-76
2022/11/22 04:29:27;;;;;;;;;19.40;18.40;;;;;9.76;60.02;98466.63;4840682;29;8891;-79
2022/11/22 04:34:44;;;;;;;;;27.00;24.20;;;;;9.49;59.52;98467.88;4837718;29;9031;-76
2022/11/22 04:37:13;;;;;;;;;22.80;19.00;;;;;9.52;60.12;98462.63;4847047;29;8913;-77
2022/11/22 04:39:41;;;;;;;;;15.20;15.00;;;;;9.60;59.73;98472.94;4855197;29;8891;-76
2022/11/22 04:44:56;;;;;;;;;17.00;17.00;;;;;9.66;60.27;98463.31;4873603;29;8880;-74
2022/11/22 04:53:01;;;;;;;;;20.60;19.00;;;;;9.42;59.44;98445.44;4849809;29;8870;-74
2022/11/22 04:55:30;;;;;;;;;18.60;16.40;;;;;9.32;60.17;98436.91;4858074;29;8886;-75
2022/11/22 04:57:58;;;;;;;;;17.20;17.20;;;;;9.24;60.44;98431.78;4873408;29;8889;-74
2022/11/22 05:00:29;;;;;;;;;14.00;12.40;;;;;9.27;60.05;98433.50;4852975;29;8908;-75
2022/11/22 05:02:58;;;;;;;;;21.60;19.80;;;;;9.12;60.56;98439.75;4856029;29;9029;-75
2022/11/22 05:05:29;;;;;;;;;15.00;15.00;;;;;9.15;60.31;98442.31;4854865;29;8879;-76
2022/11/22 05:07:58;;;;;;;;;16.20;16.20;;;;;9.13;60.40;98431.06;4843474;29;8861;-75
2022/11/22 05:10:27;;;;;;;;;18.60;18.60;;;;;9.10;60.55;98431.09;4819852;29;8894;-74
2022/11/22 05:12:56;;;;;;;;;19.20;16.20;;;;;9.08;60.14;98427.66;4851346;29;8908;-76
2022/11/22 05:15:24;;;;;;;;;31.60;26.80;;;;;9.09;60.70;98430.25;4837450;29;8985;-75
2022/11/22 05:17:53;;;;;;;;;17.60;16.40;;;;;9.21;60.23;98426.63;4837254;29;8913;-78
2022/11/22 05:20:21;;;;;;;;;14.00;14.00;;;;;9.12;60.14;98422.41;4856031;29;8868;-76
2022/11/22 05:25:37;;;;;;;;;15.80;15.60;;;;;9.10;60.02;98425.91;4837467;29;8882;-76
2022/11/22 05:28:06;;;;;;;;;20.60;17.20;;;;;9.02;60.12;98426.00;4834514;29;8905;-76
2022/11/22 05:30:34;;;;;;;;;25.20;22.60;;;;;8.85;60.55;98439.22;4848161;29;8895;-74
2022/11/22 05:33:04;;;;;;;;;20.40;19.20;;;;;8.81;60.77;98423.66;4858311;29;9011;-77
2022/11/22 05:35:34;;;;;;;;;16.00;16.00;;;;;8.72;60.78;98428.09;4869481;29;8914;-75
2022/11/22 05:38:04;;;;;;;;;38.40;33.40;;;;;8.77;60.46;98434.09;4852986;29;8901;-76
2022/11/22 05:40:32;;;;;;;;;29.20;26.00;;;;;8.76;60.96;98423.72;4854665;29;8887;-75
2022/11/22 05:43:01;;;;;;;;;23.60;20.00;;;;;8.69;60.44;98422.91;4856407;29;8883;-77
2022/11/22 05:45:29;;;;;;;;;22.20;20.80;;;;;8.77;60.71;98415.03;4857026;29;8970;-77
2022/11/22 05:47:58;;;;;;;;;18.40;17.20;;;;;8.73;60.47;98411.63;4857477;29;9672;-77
2022/11/22 05:50:26;;;;;;;;;24.00;22.20;;;;;8.69;61.09;98409.06;4874930;29;8895;-77
2022/11/22 05:52:55;;;;;;;;;20.80;19.00;;;;;8.72;60.90;98412.50;4885040;29;8896;-78
2022/11/22 05:55:25;;;;;;;;;23.60;22.20;;;;;8.67;61.45;98411.66;4883139;29;8876;-76
2022/11/22 05:57:53;;;;;;;;;20.80;20.00;;;;;8.57;61.42;98410.06;4859449;29;8891;-77
2022/11/22 06:00:22;;;;;;;;;21.40;19.40;;;;;8.62;61.08;98410.88;4872843;29;8931;-77
2022/11/22 06:02:51;;;;;;;;;17.40;17.40;;;;;8.50;61.74;98404.06;4872469;29;8875;-76
2022/11/22 06:05:19;;;;;;;;;26.20;22.80;;;;;8.54;61.56;98412.69;4857075;29;8896;-76
2022/11/22 06:07:48;;;;;;;;;20.60;19.00;;;;;8.56;61.36;98409.22;4859227;29;9634;-77
2022/11/22 06:10:18;;;;;;;;;20.80;18.00;;;;;8.52;61.13;98411.84;4858735;29;8897;-77
2022/11/22 06:12:48;;;;;;;;;22.80;20.80;;;;;8.66;61.50;98401.28;4859076;29;8927;-77
2022/11/22 06:15:17;;;;;;;;;18.80;17.60;;;;;8.58;60.95;98407.47;4860802;29;8996;-77
2022/11/22 06:17:45;;;;;;;;;12.60;12.60;;;;;8.61;60.95;98396.16;4860752;29;8875;-77
2022/11/22 06:20:14;;;;;;;;;15.20;15.00;;;;;8.54;61.18;98390.19;4845088;29;8887;-78
2022/11/22 06:22:43;;;;;;;;;18.20;17.00;;;;;8.42;62.01;98392.03;4878156;29;8879;-78
2022/11/22 06:25:11;;;;;;;;;20.20;18.00;;;;;8.46;61.58;98379.00;4872148;29;9706;-77
2022/11/22 06:27:40;;;;;;;;;17.60;16.00;;;;;8.52;62.01;98386.72;4854376;29;8897;-77
2022/11/22 06:30:11;;;;;;;;;17.20;15.20;;;;;8.57;60.99;98382.34;4855804;29;8887;-79
2022/11/22 06:32:40;;;;;;;;;14.00;14.00;;;;;8.55;61.28;98386.69;4880251;29;8998;-76
2022/11/22 06:35:09;;;;;;;;;13.80;13.80;;;;;8.64;61.57;98384.84;4865681;29;9002;-76
2022/11/22 06:37:38;;;;;;;;;18.40;16.20;;;;;8.69;61.30;98372.69;4865144;29;8890;-77
2022/11/22 06:40:10;;;;;;;;;14.80;14.40;;;;;8.57;61.17;98369.34;4858133;29;8919;-77
2022/11/22 06:42:38;;;;;;;;;11.80;10.40;;;;;8.66;60.95;98377.91;4859413;29;9073;-75
2022/11/22 06:45:10;;;;;;;;;15.80;15.60;;;;;8.75;61.60;98372.59;4842662;29;8903;-78
2022/11/22 06:47:39;;;;;;;;;19.00;18.20;;;;;8.78;60.95;98373.41;4858855;29;8863;-79
2022/11/22 06:50:08;;;;;;;;;23.40;20.40;;;;;8.73;61.26;98371.75;4865132;29;8902;-77
2022/11/22 06:52:37;;;;;;;;;18.80;16.40;;;;;8.59;61.76;98370.19;4901335;29;8875;-76
2022/11/22 06:55:06;;;;;;;;;18.40;16.60;;;;;8.59;62.07;98358.94;4911812;29;8879;-77
2022/11/22 06:57:35;;;;;;;;;17.20;16.60;;;;;8.56;62.56;98359.84;4876971;29;8887;-77
2022/11/22 07:00:04;;;;;;;;;21.00;17.60;;;;;8.54;62.82;98372.00;4893943;29;9621;-77
2022/11/22 07:02:34;;;;;;;;;18.00;17.20;;;;;8.56;61.76;98365.03;4893092;29;8879;-77
2022/11/22 07:05:03;;;;;;;;;16.00;16.00;;;;;8.69;62.16;98373.53;4890179;29;8929;-77
2022/11/22 07:07:52;;;;;;;;;14.20;14.20;;;;;8.84;61.43;98371.63;4890969;29;9705;-78
2022/11/22 07:10:22;;;;;;;;;18.00;18.00;;;;;8.89;61.72;98362.91;4887003;29;8903;-77
2022/11/22 07:12:51;;;;;;;;;21.80;17.60;;;;;8.89;61.30;98355.09;4876794;29;8922;-77
2022/11/22 07:15:20;;;;;;;;;18.40;16.80;;;;;8.80;61.39;98360.41;4889293;29;8864;-77
2022/11/22 07:17:50;;;;;;;;;14.40;14.00;;;;;9.03;61.19;98364.44;4892452;29;8917;-77
2022/11/22 07:20:18;;;;;;;;;17.00;14.80;;;;;9.22;61.06;98349.44;4892082;29;8899;-78
2022/11/22 07:22:47;;;;;;;;;18.60;15.60;;;;;9.35;60.82;98336.22;4892290;29;8885;-78
2022/11/22 07:25:16;;;;;;;;;16.20;16.00;;;;;9.41;60.46;98339.63;4875805;29;8951;-76
2022/11/22 07:27:44;;;;;;;;;18.00;18.00;;;;;9.48;60.08;98333.47;4873493;29;8871;-77
2022/11/22 07:30:14;;;;;;;;;16.20;15.60;;;;;9.65;59.63;98318.41;4856054;29;9022;-78
2022/11/22 07:32:47;;;;;;;;;16.40;16.20;;;;;9.64;59.21;98313.22;4836694;29;8891;-79
2022/11/22 07:35:17;;;;;;;;;19.20;16.80;;;;;9.76;59.73;98303.47;4837242;29;8898;-78
2022/11/22 07:37:47;;;;;;;;;18.80;16.80;;;;;9.90;59.32;98312.78;4821769;29;8922;-78
2022/11/22 07:40:16;;;;;;;;;19.60;15.60;;;;;9.86;59.12;98308.53;4822295;29;8860;-78
2022/11/22 07:42:45;;;;;;;;;18.80;16.80;;;;;9.86;58.47;98313.72;4844155;29;8904;-78
2022/11/22 07:45:14;;;;;;;;;14.60;13.80;;;;;9.92;58.46;98309.28;4841019;29;8956;-77
2022/11/22 07:47:42;;;;;;;;;17.00;16.40;;;;;10.02;58.13;98316.91;4843793;29;8908;-76
2022/11/22 07:50:12;;;;;;;;;15.60;13.80;;;;;10.00;58.60;98316.09;4871841;29;8884;-77
2022/11/22 07:52:41;;;;;;;;;12.20;12.20;;;;;10.14;57.84;98307.13;4866177;29;8872;-78
2022/11/22 07:55:11;;;;;;;;;19.20;16.00;;;;;10.11;56.96;98306.31;4823454;29;8925;-78
2022/11/22 07:57:41;;;;;;;;;10.20;10.20;;;;;10.01;56.81;98312.59;4822850;29;8875;-77
2022/11/22 08:00:12;;;;;;;;;11.80;11.20;;;;;10.07;57.25;98309.88;4824833;29;8929;-79
2022/11/22 08:02:40;;;;;;;;;12.60;12.00;;;;;10.01;57.49;98299.59;4824252;29;9014;-77
2022/11/22 08:05:09;;;;;;;;;13.00;13.00;;;;;10.06;57.94;98298.63;4859702;29;8891;-78
2022/11/22 08:07:38;;;;;;;;;14.20;12.80;;;;;10.25;57.39;98301.72;4825166;29;10062;-79
2022/11/22 08:10:09;;;;;;;;;12.40;12.40;;;;;10.21;57.32;98289.66;4854815;29;8860;-80
2022/11/22 08:12:38;;;;;;;;;15.80;14.40;;;;;10.37;57.31;98286.78;4855259;29;8911;-77
2022/11/22 08:15:07;;;;;;;;;13.20;13.20;;;;;10.27;56.79;98296.50;4855726;29;8859;-77
2022/11/22 08:17:37;;;;;;;;;12.60;12.60;;;;;10.33;56.88;98278.16;4838839;29;8891;-77
2022/11/22 08:20:08;;;;;;;;;6.40;6.40;;;;;10.41;55.73;98276.25;4854758;29;8899;-77
2022/11/22 08:22:37;;;;;;;;;13.20;12.00;;;;;10.57;55.30;98278.53;4824967;29;8895;-78
2022/11/22 08:25:11;;;;;;;;;9.40;8.40;;;;;10.63;55.09;98270.59;4854668;29;8855;-77
2022/11/22 08:27:40;;;;;;;;;12.00;11.00;;;;;10.72;54.54;98273.00;4854398;29;8888;-76
2022/11/22 08:30:10;;;;;;;;;12.00;11.60;;;;;10.72;54.42;98270.41;4855180;29;8902;-77
2022/11/22 08:32:39;;;;;;;;;13.00;10.80;;;;;10.75;55.16;98279.91;4854570;29;8958;-78
2022/11/22 08:35:08;;;;;;;;;15.20;13.40;;;;;10.92;54.86;98273.41;4854832;29;8883;-77
2022/11/22 08:37:37;;;;;;;;;12.80;12.00;;;;;11.01;54.06;98268.88;4855335;29;8867;-77
2022/11/22 08:40:08;;;;;;;;;11.00;11.00;;;;;11.03;55.06;98272.31;4858711;29;8882;-77
2022/11/22 08:42:37;;;;;;;;;10.00;9.20;;;;;11.20;54.78;98271.94;4869280;29;8998;-78
2022/11/22 08:45:06;;;;;;;;;11.80;11.00;;;;;11.26;54.02;98267.41;4873905;29;8925;-78
2022/11/22 08:47:35;;;;;;;;;9.80;8.80;;;;;11.34;53.64;98269.81;4862452;29;8891;-78
2022/11/22 08:50:04;;;;;;;;;8.60;8.60;;;;;11.49;54.31;98279.03;4856976;29;8994;-77
2022/11/22 08:52:34;;;;;;;;;11.00;11.00;;;;;11.51;54.07;98267.69;4857057;29;9646;-77
2022/11/22 08:55:03;;;;;;;;;13.40;13.40;;;;;11.59;53.44;98270.09;4840546;29;8875;-77
2022/11/22 08:57:33;;;;;;;;;16.40;12.00;;;;;11.67;53.10;98270.75;4856717;29;8909;-77
2022/11/22 09:00:03;;;;;;;;;10.00;10.00;;;;;11.67;53.45;98262.06;4856457;29;8871;-78
2022/11/22 09:02:32;;;;;;;;;10.20;9.40;;;;;11.81;52.99;98252.09;4854090;29;8922;-79
2022/11/22 09:05:01;;;;;;;;;9.20;8.20;;;;;11.95;52.27;98249.16;4855322;29;8871;-77
2022/11/22 09:07:29;;;;;;;;;9.80;9.80;;;;;12.03;52.69;98241.97;4856730;29;8894;-78
2022/11/22 09:10:18;;;;;;;;;10.80;10.60;;;;;12.19;52.27;98238.94;4842136;29;8887;-77
2022/11/22 09:12:48;;;;;;;;;8.20;8.20;;;;;12.21;51.90;98224.94;4857865;29;9017;-78
2022/11/22 09:15:17;;;;;;;;;10.40;8.40;;;;;12.28;52.12;98216.00;4854424;29;8871;-77
2022/11/22 09:17:45;;;;;;;;;8.80;8.60;;;;;12.32;51.03;98215.91;4854449;29;8906;-78
2022/11/22 09:20:14;;;;;;;;;9.00;7.80;;;;;12.34;50.87;98217.56;4856817;29;8967;-79
2022/11/22 09:22:43;;;;;;;;;9.60;8.60;;;;;12.53;51.14;98206.56;4854699;29;8934;-76
2022/11/22 09:25:11;;;;;;;;;10.00;10.00;;;;;12.68;51.07;98201.75;4858529;29;8909;-76
2022/11/22 09:27:40;;;;;;;;;14.20;13.40;;;;;12.82;50.94;98201.31;4860283;29;8899;-78
2022/11/22 09:30:11;;;;;;;;;9.80;9.60;;;;;12.81;49.95;98193.50;4859112;29;9656;-80
2022/11/22 09:32:39;;;;;;;;;13.60;11.60;;;;;12.79;50.16;98172.63;4854979;29;8891;-77
2022/11/22 09:35:08;;;;;;;;;13.60;11.20;;;;;12.85;49.72;98180.31;4861772;29;8882;-78
2022/11/22 09:37:37;;;;;;;;;9.60;9.00;;;;;12.83;49.65;98170.78;4870652;29;8887;-77
2022/11/22 09:40:07;;;;;;;;;10.40;10.40;;;;;12.75;49.19;98146.63;4864671;29;8903;-79
2022/11/22 09:42:54;;;;;;;;;12.00;10.00;;;;;12.75;49.16;98134.41;4840541;29;9725;-77
2022/11/22 09:46:01;;;;;;;;;9.80;9.60;;;;;12.81;50.23;98141.19;4856385;29;8902;-78
2022/11/22 09:48:48;;;;;;;;;12.60;12.40;;;;;12.72;50.27;98138.88;4827816;29;10202;-77
2022/11/22 09:51:21;;;;;;;;;14.60;13.60;;;;;12.41;50.56;98132.84;4863835;29;8853;-78
2022/11/22 09:53:55;;;;;;;;;9.60;9.60;;;;;12.56;50.32;98123.66;4872112;29;8858;-77
2022/11/22 09:56:26;;;;;;;;;10.60;10.60;;;;;12.57;50.37;98116.66;4872224;29;8932;-77
2022/11/22 09:58:59;;;;;;;;;8.00;8.00;;;;;12.64;49.47;98116.41;4872830;29;8878;-77
2022/11/22 10:01:34;;;;;;;;;7.80;7.80;;;;;12.64;50.28;98123.41;4872642;29;8862;-77
2022/11/22 10:04:08;;;;;;;;;9.40;9.40;;;;;12.57;51.03;98124.50;4869236;29;9617;-79
2022/11/22 10:06:40;;;;;;;;;10.40;10.00;;;;;12.49;50.68;98119.53;4854207;29;9023;-76
2022/11/22 10:09:26;;;;;;;;;8.00;8.00;;;;;12.46;50.88;98115.25;4838398;29;9650;-77
2022/11/22 10:12:02;;;;;;;;;12.40;11.60;;;;;12.37;51.85;98112.94;4853643;29;8974;-79
2022/11/22 10:14:40;;;;;;;;;13.60;12.20;;;;;12.56;51.30;98112.38;4822991;29;8933;-78
2022/11/22 10:17:24;;;;;;;;;13.00;12.80;;;;;12.56;50.98;98099.28;4838207;29;8966;-76
2022/11/22 10:19:58;;;;;;;;;9.60;8.20;;;;;12.60;51.40;98099.13;4853228;29;8971;-79
2022/11/22 10:22:30;;;;;;;;;11.20;11.20;;;;;12.50;51.50;98087.25;4853639;29;8888;-78
2022/11/22 10:24:59;;;;;;;;;17.80;15.40;;;;;12.44;51.85;98074.41;4864126;29;9671;-78
2022/11/22 10:27:31;;;;;;;;;13.60;12.40;;;;;12.54;51.82;98078.41;4891772;29;8843;-78
2022/11/22 10:30:05;;;;;;;;;14.60;13.00;;;;;12.52;51.71;98072.38;4866975;29;8887;-78
2022/11/22 10:32:40;;;;;;;;;13.20;12.60;;;;;12.54;52.63;98065.34;4870419;29;9852;-78
2022/11/22 10:35:29;;;;;;;;;11.80;11.80;;;;;12.36;52.05;98065.91;4862699;29;8875;-80
2022/11/22 10:38:20;;;;;;;;;13.40;12.20;;;;;12.43;52.52;98057.84;4860254;29;8871;-77
2022/11/22 10:40:58;;;;;;;;;14.00;13.20;;;;;12.32;52.75;98038.19;4858454;29;8879;-77
2022/11/22 10:43:37;;;;;;;;;14.60;14.00;;;;;12.31;53.71;98031.25;4859118;29;8887;-77
2022/11/22 10:46:15;;;;;;;;;11.00;11.00;;;;;12.23;53.39;98008.81;4858090;29;8978;-77
2022/11/22 10:48:52;;;;;;;;;14.20;13.40;;;;;12.17;54.19;97992.47;4857517;29;8995;-77
2022/11/22 10:51:28;;;;;;;;;14.20;14.20;;;;;12.38;53.89;97978.72;4858697;29;8945;-77
2022/11/22 10:54:11;;;;;;;;;11.40;11.40;;;;;12.36;54.20;97972.69;4858725;29;8875;-77
2022/11/22 10:56:48;;;;;;;;;10.60;10.60;;;;;12.27;53.95;97963.38;4857267;29;9775;-78
2022/11/22 10:59:36;;;;;;;;;10.80;10.80;;;;;12.39;54.16;97956.03;4877539;29;8958;-81
2022/11/22 11:02:29;;;;;;;;;9.60;9.20;;;;;12.33;53.95;97954.47;4836099;29;8996;-78
2022/11/22 11:05:04;;;;;;;;;17.60;14.40;;;;;12.33;54.33;97948.41;4893288;29;8882;-77
2022/11/22 11:07:32;;;;;;;;;12.40;10.00;;;;;12.26;54.56;97964.28;4892900;29;8901;-78
2022/11/22 11:10:04;;;;;;;;;11.60;9.00;;;;;12.49;54.49;97970.50;4878915;29;8867;-79
2022/11/22 11:12:56;;;;;;;;;9.40;9.00;;;;;12.51;54.54;97965.22;4856392;29;9020;-78
2022/11/22 11:15:35;;;;;;;;;15.40;15.40;;;;;12.59;54.39;97965.81;4856053;29;8993;-79
2022/11/22 11:18:07;;;;;;;;;12.60;11.40;;;;;12.54;54.67;97968.59;4841901;29;8880;-78
2022/11/22 11:20:42;;;;;;;;;17.60;14.00;;;;;12.49;54.71;97962.66;4857332;29;8983;-78
2022/11/22 11:23:11;;;;;;;;;10.00;9.00;;;;;12.40;55.29;97955.13;4849114;29;8948;-78
2022/11/22 11:25:45;;;;;;;;;14.40;13.20;;;;;12.46;55.67;97954.94;4815467;29;8868;-78
2022/11/22 11:28:19;;;;;;;;;9.80;8.60;;;;;12.53;55.31;97952.94;4849544;29;8875;-76
2022/11/22 11:30:52;;;;;;;;;13.80;13.40;;;;;12.44;54.92;97947.13;4847369;29;8885;-76
2022/11/22 11:33:31;;;;;;;;;11.40;10.20;;;;;12.63;55.01;97942.13;4845553;29;9054;-80
2022/11/22 11:36:05;;;;;;;;;14.80;14.80;;;;;12.74;55.53;97944.38;4843016;29;8865;-77
2022/11/22 11:38:36;;;;;;;;;13.80;11.80;;;;;12.59;56.08;97934.44;4828556;29;9646;-77
2022/11/22 11:41:21;;;;;;;;;15.60;15.00;;;;;12.71;55.55;97934.00;4838237;29;9061;-77
2022/11/22 11:43:51;;;;;;;;;10.80;10.80;;;;;12.48;56.19;97921.75;4804192;29;9017;-75
2022/11/22 11:46:21;;;;;;;;;13.00;10.80;;;;;12.42;56.24;97903.63;4857596;29;8892;-79
2022/11/22 11:48:52;;;;;;;;;12.60;11.20;;;;;12.31;57.65;97906.63;4857813;29;8895;-78
2022/11/22 11:51:26;;;;;;;;;13.60;11.00;;;;;12.42;56.91;97911.47;4858731;29;8879;-77
2022/11/22 11:53:58;;;;;;;;;13.00;11.80;;;;;12.34;58.05;97914.34;4824913;29;8887;-78
2022/11/22 11:56:32;;;;;;;;;12.80;12.20;;;;;12.36;57.88;97903.84;4841102;29;8906;-79
2022/11/22 11:59:07;;;;;;;;;14.20;14.20;;;;;12.58;57.55;97917.03;4858064;29;8891;-78
2022/11/22 12:01:37;;;;;;;;;11.20;10.20;;;;;12.67;57.44;97933.25;4857877;29;8887;-79
2022/11/22 12:04:16;;;;;;;;;9.60;9.60;;;;;12.53;57.35;97916.34;4856394;29;8898;-76
2022/11/22 12:06:53;;;;;;;;;10.00;10.00;;;;;12.38;57.57;97928.19;4856532;29;8883;-78
2022/11/22 12:09:33;;;;;;;;;10.40;9.20;;;;;12.47;58.52;97920.03;4857892;29;8879;-78